Time;durP1;ratioP1;P1;durP2;ratioP2;P2;SDS_P1;SDS_P2;PMS_P1;PMS_P2;Temp;Humidity;BMP_temperature;BMP_pressure;BME280_temperature;BME280_humidity;BME280_pressure;Samples;Min_cycle;Max_cycle;Signal;HPM_P1;HPM_P2
2023/11/25 00:01:37;;;;;;;0.88;0.77;;;10.10;99.90;;;;;;4967337;28;20056;-77
2023/11/25 00:04:03;;;;;;;1.20;1.08;;;10.10;99.90;;;;;;4972440;28;20030;-77
2023/11/25 00:06:29;;;;;;;2.30;0.70;;;10.10;99.90;;;;;;4972595;28;20472;-76
2023/11/25 00:08:54;;;;;;;3.72;1.02;;;10.10;99.90;;;;;;4972191;28;20018;-77
2023/11/25 00:11:20;;;;;;;2.38;1.00;;;10.10;99.90;;;;;;4972188;28;20033;-77
2023/11/25 00:13:46;;;;;;;3.85;0.70;;;10.10;99.90;;;;;;4974482;28;20015;-76
2023/11/25 00:16:11;;;;;;;1.08;0.90;;;10.10;99.90;;;;;;4972132;28;20045;-77
2023/11/25 00:18:37;;;;;;;1.17;0.95;;;10.10;99.90;;;;;;4971042;28;20023;-77
2023/11/25 00:21:02;;;;;;;1.27;0.80;;;10.10;99.90;;;;;;4969326;28;20038;-77
2023/11/25 00:23:28;;;;;;;2.50;0.90;;;10.10;99.90;;;;;;4971838;28;20093;-77
2023/11/25 00:25:54;;;;;;;1.23;0.93;;;10.10;99.90;;;;;;4971822;28;20070;-77
2023/11/25 00:28:19;;;;;;;1.40;1.05;;;10.10;99.90;;;;;;4976470;28;20512;-77
2023/11/25 00:30:46;;;;;;;1.85;0.70;;;10.10;99.90;;;;;;4971485;28;20027;-77
2023/11/25 00:33:12;;;;;;;3.40;0.75;;;10.10;99.90;;;;;;4972952;28;20014;-77
2023/11/25 00:35:38;;;;;;;2.63;0.70;;;10.00;99.90;;;;;;4970368;28;20015;-77
2023/11/25 00:38:08;;;;;;;1.17;0.93;;;10.00;99.90;;;;;;4972024;28;20141;-77
2023/11/25 00:40:34;;;;;;;1.80;0.90;;;10.00;99.90;;;;;;4968135;28;20022;-77
2023/11/25 00:43:00;;;;;;;2.45;0.80;;;10.00;99.90;;;;;;4971288;28;20027;-77
2023/11/25 00:45:26;;;;;;;2.08;1.10;;;10.10;99.90;;;;;;4970564;28;20033;-77
2023/11/25 00:47:52;;;;;;;1.23;0.70;;;10.00;99.90;;;;;;4970519;28;20023;-77
2023/11/25 00:50:19;;;;;;;3.30;0.80;;;10.00;99.90;;;;;;4971466;28;20412;-77
2023/11/25 00:52:45;;;;;;;3.65;0.80;;;10.10;99.90;;;;;;4970482;28;20015;-77
2023/11/25 00:55:10;;;;;;;0.70;0.70;;;10.00;99.90;;;;;;4971265;28;20015;-77
2023/11/25 00:57:36;;;;;;;2.10;0.85;;;10.10;99.90;;;;;;4971564;28;20035;-77
2023/11/25 01:00:04;;;;;;;1.05;0.70;;;10.10;99.90;;;;;;4971373;28;20031;-77
2023/11/25 01:02:30;;;;;;;1.63;0.80;;;10.10;99.90;;;;;;4967527;28;20077;-76
2023/11/25 01:04:56;;;;;;;1.40;0.80;;;10.10;99.90;;;;;;4971304;28;20105;-77
2023/11/25 01:07:21;;;;;;;4.28;0.68;;;10.10;99.90;;;;;;4971382;28;20703;-76
2023/11/25 01:09:47;;;;;;;6.97;0.90;;;10.10;99.90;;;;;;4971061;28;20452;-76
2023/11/25 01:12:12;;;;;;;1.30;0.80;;;10.10;99.90;;;;;;4971076;28;20086;-76
2023/11/25 01:14:38;;;;;;;1.13;0.73;;;10.10;99.90;;;;;;4971286;28;20106;-76
2023/11/25 01:17:04;;;;;;;2.42;0.70;;;10.10;99.90;;;;;;4971231;28;20118;-77
2023/11/25 01:19:29;;;;;;;2.47;0.57;;;10.10;99.90;;;;;;4970849;28;20019;-77
2023/11/25 01:21:55;;;;;;;0.80;0.75;;;10.10;99.90;;;;;;4968770;28;20026;-77
2023/11/25 01:24:21;;;;;;;1.02;0.65;;;10.10;99.90;;;;;;4969796;28;20047;-76
2023/11/25 01:26:46;;;;;;;3.03;0.80;;;10.10;99.90;;;;;;4974502;28;20073;-77
2023/11/25 01:29:12;;;;;;;0.52;0.52;;;10.10;99.90;;;;;;4977242;28;20446;-76
2023/11/25 01:31:37;;;;;;;2.60;0.70;;;10.10;99.90;;;;;;4970841;28;20102;-77
2023/11/25 01:34:03;;;;;;;0.73;0.73;;;10.10;99.90;;;;;;4970490;28;20019;-77
2023/11/25 01:36:29;;;;;;;1.15;0.60;;;10.10;99.90;;;;;;4970786;28;20034;-77
2023/11/25 01:38:54;;;;;;;0.65;0.50;;;10.10;99.90;;;;;;4970298;28;20015;-76
2023/11/25 01:41:20;;;;;;;0.43;0.43;;;10.10;99.90;;;;;;4970433;28;20035;-77
2023/11/25 01:43:45;;;;;;;0.55;0.55;;;10.10;99.90;;;;;;4972288;28;20037;-77
2023/11/25 01:46:17;;;;;;;2.75;0.50;;;10.10;99.90;;;;;;4970580;28;20459;-77
2023/11/25 01:48:44;;;;;;;1.13;0.70;;;10.10;99.90;;;;;;4970519;28;20031;-76
2023/11/25 01:51:10;;;;;;;5.28;1.10;;;10.10;99.90;;;;;;4970611;28;20031;-77
2023/11/25 01:53:38;;;;;;;1.13;0.70;;;10.10;99.90;;;;;;4970343;28;20110;-77
2023/11/25 01:56:04;;;;;;;1.65;0.63;;;10.10;99.90;;;;;;4970500;28;20007;-77
2023/11/25 01:58:30;;;;;;;0.60;0.40;;;10.10;99.90;;;;;;4970670;28;20015;-77
2023/11/25 02:00:56;;;;;;;1.23;0.90;;;10.10;99.90;;;;;;4970207;28;20035;-77
2023/11/25 02:03:23;;;;;;;0.70;0.63;;;10.10;99.90;;;;;;4972632;28;20490;-77
2023/11/25 02:05:48;;;;;;;0.88;0.60;;;10.10;99.90;;;;;;4974413;28;20098;-77
2023/11/25 02:08:14;;;;;;;0.82;0.65;;;10.10;99.90;;;;;;4971780;28;20031;-77
2023/11/25 02:10:40;;;;;;;1.70;0.40;;;10.10;99.90;;;;;;4974518;28;20027;-76
2023/11/25 02:13:09;;;;;;;2.35;0.65;;;10.10;99.90;;;;;;4974079;28;20026;-76
2023/11/25 02:15:40;;;;;;;0.57;0.57;;;10.10;99.90;;;;;;4974482;28;20019;-77
2023/11/25 02:18:07;;;;;;;0.68;0.60;;;10.10;99.90;;;;;;4974480;28;20062;-77
2023/11/25 02:20:42;;;;;;;0.80;0.70;;;10.10;99.90;;;;;;4970082;28;20030;-77
2023/11/25 02:23:24;;;;;;;1.35;0.63;;;10.10;99.90;;;;;;4973235;28;20081;-77
2023/11/25 02:25:52;;;;;;;1.58;0.60;;;10.10;99.90;;;;;;4974205;28;20439;-77
2023/11/25 02:28:21;;;;;;;2.25;1.10;;;10.10;99.90;;;;;;4974204;28;20023;-77
2023/11/25 02:30:48;;;;;;;1.38;0.60;;;10.10;99.90;;;;;;4970475;28;20547;-76
2023/11/25 02:33:15;;;;;;;0.82;0.60;;;10.10;99.90;;;;;;4973808;28;20023;-77
2023/11/25 02:35:42;;;;;;;0.70;0.70;;;10.10;99.90;;;;;;4973947;28;20023;-77
2023/11/25 02:38:11;;;;;;;4.63;0.80;;;10.10;99.90;;;;;;4972583;28;20018;-77
2023/11/25 02:40:37;;;;;;;3.08;0.95;;;10.10;99.90;;;;;;4974159;28;20034;-77
2023/11/25 02:43:03;;;;;;;1.45;0.63;;;10.10;99.90;;;;;;4966317;28;20074;-76
2023/11/25 02:45:29;;;;;;;2.15;0.75;;;10.10;99.90;;;;;;4968632;28;20034;-77
2023/11/25 02:47:54;;;;;;;0.98;0.70;;;10.10;99.90;;;;;;4973849;28;20635;-77
2023/11/25 02:50:20;;;;;;;0.70;0.65;;;10.10;99.90;;;;;;4974012;28;20029;-76
2023/11/25 02:52:46;;;;;;;0.60;0.60;;;10.10;99.90;;;;;;4973721;28;20599;-77
2023/11/25 02:55:12;;;;;;;0.43;0.43;;;10.10;99.90;;;;;;4975590;28;20019;-76
2023/11/25 02:57:43;;;;;;;0.60;0.60;;;10.10;99.90;;;;;;4977169;28;20038;-77
2023/11/25 03:02:49;;;;;;;0.88;0.65;;;10.10;99.90;;;;;;4973436;28;20452;-77
2023/11/25 03:05:16;;;;;;;0.82;0.80;;;10.10;99.90;;;;;;4973341;28;20566;-77
2023/11/25 03:07:42;;;;;;;0.73;0.57;;;10.10;99.90;;;;;;4973446;28;20023;-77
2023/11/25 03:10:09;;;;;;;2.20;0.60;;;10.10;99.90;;;;;;4973367;28;20133;-77
2023/11/25 03:12:35;;;;;;;0.93;0.68;;;10.10;99.90;;;;;;4973400;28;20022;-77
2023/11/25 03:15:00;;;;;;;0.82;0.50;;;10.10;99.90;;;;;;4972519;28;20384;-76
2023/11/25 03:17:27;;;;;;;0.70;0.70;;;10.10;99.90;;;;;;4969792;28;20029;-77
2023/11/25 03:19:53;;;;;;;0.63;0.63;;;10.10;99.90;;;;;;4968748;28;20025;-77
2023/11/25 03:22:18;;;;;;;1.20;0.80;;;10.10;99.90;;;;;;4972782;28;20027;-76
2023/11/25 03:24:44;;;;;;;0.75;0.68;;;10.10;99.90;;;;;;4973132;28;20026;-76
2023/11/25 03:27:09;;;;;;;1.05;0.88;;;10.10;99.90;;;;;;4973152;28;20030;-76
2023/11/25 03:29:35;;;;;;;0.60;0.60;;;10.10;99.90;;;;;;4972918;28;20031;-77
2023/11/25 03:32:00;;;;;;;0.60;0.60;;;10.10;99.90;;;;;;4972545;28;20157;-77
2023/11/25 03:34:26;;;;;;;3.25;0.63;;;10.10;99.90;;;;;;4971077;28;20484;-76
2023/11/25 03:36:52;;;;;;;1.48;0.85;;;10.10;99.90;;;;;;4970785;28;20491;-77
2023/11/25 03:39:17;;;;;;;0.55;0.55;;;10.10;99.90;;;;;;4970775;28;20019;-77
2023/11/25 03:41:43;;;;;;;0.73;0.60;;;10.10;99.90;;;;;;4973005;28;20022;-76
2023/11/25 03:44:09;;;;;;;2.25;0.70;;;10.10;99.90;;;;;;4972606;28;20035;-77
2023/11/25 03:46:34;;;;;;;3.95;0.80;;;10.10;99.90;;;;;;4972151;28;20038;-77
2023/11/25 03:49:00;;;;;;;1.48;0.82;;;10.10;99.90;;;;;;4972702;28;20053;-77
2023/11/25 03:51:25;;;;;;;1.00;0.60;;;10.10;99.90;;;;;;4972933;28;20033;-76
2023/11/25 03:53:51;;;;;;;1.85;0.60;;;10.10;99.90;;;;;;4969743;28;20435;-76
2023/11/25 03:56:16;;;;;;;0.73;0.70;;;10.10;99.90;;;;;;4986628;28;20015;-77
2023/11/25 03:58:43;;;;;;;0.63;0.63;;;10.10;99.90;;;;;;4972398;28;20420;-77
2023/11/25 04:01:08;;;;;;;2.58;0.77;;;10.10;99.90;;;;;;4966940;28;20039;-77
2023/11/25 04:03:35;;;;;;;1.90;0.70;;;10.10;99.90;;;;;;4972592;28;20058;-77
2023/11/25 04:06:02;;;;;;;0.60;0.60;;;10.10;99.90;;;;;;4986050;28;20384;-77
2023/11/25 04:08:27;;;;;;;0.90;0.63;;;10.10;99.90;;;;;;4972467;28;20139;-77
2023/11/25 04:10:53;;;;;;;0.77;0.50;;;10.10;99.90;;;;;;4983903;28;20610;-77
2023/11/25 04:13:19;;;;;;;1.23;0.57;;;10.10;99.90;;;;;;4972046;28;20023;-77
2023/11/25 04:15:44;;;;;;;2.05;0.60;;;10.00;99.90;;;;;;4972403;28;20015;-76
2023/11/25 04:18:10;;;;;;;1.17;0.70;;;10.10;99.90;;;;;;4971961;28;20023;-77
2023/11/25 04:20:35;;;;;;;1.25;0.95;;;10.10;99.90;;;;;;4972096;28;20439;-77
2023/11/25 04:23:08;;;;;;;2.00;0.80;;;10.10;99.90;;;;;;4971989;28;20496;-77
2023/11/25 04:25:34;;;;;;;3.50;0.93;;;10.10;99.90;;;;;;4967306;28;20050;-76
2023/11/25 04:28:00;;;;;;;1.08;0.82;;;10.00;99.90;;;;;;4972860;28;20034;-76
2023/11/25 04:30:26;;;;;;;2.45;0.85;;;10.10;99.90;;;;;;4971373;28;20026;-76
2023/11/25 04:32:51;;;;;;;1.17;0.70;;;10.10;99.90;;;;;;4971640;28;20554;-77
2023/11/25 04:35:17;;;;;;;3.88;1.08;;;10.00;99.90;;;;;;4966489;28;20019;-77
2023/11/25 04:37:47;;;;;;;1.08;0.80;;;10.00;99.90;;;;;;4972835;28;20022;-76
2023/11/25 04:40:13;;;;;;;1.10;0.82;;;10.10;99.90;;;;;;4972473;28;20157;-76
2023/11/25 04:42:43;;;;;;;0.75;0.60;;;10.10;99.90;;;;;;4973764;28;20029;-76
2023/11/25 04:45:16;;;;;;;1.65;0.70;;;10.10;99.90;;;;;;4971322;28;20015;-76
2023/11/25 04:47:45;;;;;;;1.48;0.80;;;10.00;99.90;;;;;;4966756;28;20007;-77
2023/11/25 04:50:12;;;;;;;0.93;0.70;;;10.00;99.90;;;;;;4971463;28;20442;-76
2023/11/25 04:52:38;;;;;;;1.17;0.60;;;10.10;99.90;;;;;;4971430;28;20015;-77
2023/11/25 04:55:05;;;;;;;4.93;0.90;;;10.10;99.90;;;;;;4971290;28;20025;-76
2023/11/25 04:57:30;;;;;;;4.28;0.80;;;10.10;99.90;;;;;;4961689;28;20015;-76
2023/11/25 04:59:56;;;;;;;0.55;0.55;;;10.00;99.90;;;;;;4968136;28;20034;-77
2023/11/25 05:02:21;;;;;;;1.52;1.02;;;10.10;99.90;;;;;;4971069;28;20049;-77
2023/11/25 05:04:47;;;;;;;1.90;1.00;;;10.00;99.90;;;;;;4971251;28;20033;-77
2023/11/25 05:07:12;;;;;;;4.28;1.02;;;10.00;99.90;;;;;;4971160;28;20029;-76
2023/11/25 05:09:41;;;;;;;4.05;1.00;;;10.00;99.90;;;;;;4970483;28;20026;-77
2023/11/25 05:12:07;;;;;;;4.72;0.88;;;10.00;99.90;;;;;;4971049;28;20752;-76
2023/11/25 05:14:33;;;;;;;1.38;0.80;;;10.00;99.90;;;;;;4967210;28;20019;-76
2023/11/25 05:16:59;;;;;;;4.97;0.90;;;10.00;99.90;;;;;;4970648;28;20537;-76
2023/11/25 05:19:24;;;;;;;0.93;0.75;;;10.00;99.90;;;;;;4970264;28;20030;-77
2023/11/25 05:21:51;;;;;;;0.70;0.70;;;10.00;99.90;;;;;;4966710;28;20377;-77
2023/11/25 05:24:16;;;;;;;1.77;0.75;;;10.00;99.90;;;;;;4970542;28;20023;-76
2023/11/25 05:26:42;;;;;;;1.45;0.90;;;10.00;99.90;;;;;;4972313;28;20023;-76
2023/11/25 05:29:08;;;;;;;2.47;1.02;;;10.00;99.90;;;;;;4970829;28;20030;-75
2023/11/25 05:31:33;;;;;;;2.15;0.80;;;10.00;99.90;;;;;;4970629;28;20101;-77
2023/11/25 05:34:03;;;;;;;1.05;0.70;;;10.00;99.90;;;;;;4970102;28;20364;-77
2023/11/25 05:36:30;;;;;;;1.15;0.90;;;10.00;99.90;;;;;;4969809;28;20019;-77
2023/11/25 05:38:56;;;;;;;2.33;0.73;;;10.00;99.90;;;;;;4969572;28;20123;-77
2023/11/25 05:41:22;;;;;;;1.38;0.80;;;10.00;99.90;;;;;;4970732;28;20106;-76
2023/11/25 05:43:50;;;;;;;0.90;0.80;;;10.00;99.90;;;;;;4970856;28;20015;-77
2023/11/25 05:46:23;;;;;;;1.30;0.90;;;10.00;99.90;;;;;;4969801;28;20018;-76
2023/11/25 05:48:53;;;;;;;4.65;1.10;;;10.00;99.90;;;;;;4970876;28;20030;-77
2023/11/25 05:51:18;;;;;;;1.23;1.00;;;10.00;99.90;;;;;;4970202;28;20019;-76
2023/11/25 05:53:45;;;;;;;2.55;1.17;;;10.00;99.90;;;;;;4970331;28;20027;-77
2023/11/25 05:56:10;;;;;;;4.43;1.00;;;10.00;99.90;;;;;;4970710;28;20019;-76
2023/11/25 05:58:36;;;;;;;0.88;0.85;;;10.00;99.90;;;;;;4970084;28;20023;-76
2023/11/25 06:01:04;;;;;;;1.35;0.90;;;10.00;99.90;;;;;;4968973;28;20033;-77
2023/11/25 06:03:30;;;;;;;1.00;0.90;;;10.00;99.90;;;;;;4970599;28;20106;-77
2023/11/25 06:05:56;;;;;;;1.40;0.90;;;10.00;99.90;;;;;;4970524;28;20055;-77
2023/11/25 06:08:21;;;;;;;2.40;1.10;;;10.00;99.90;;;;;;4970162;28;20029;-76
2023/11/25 06:10:49;;;;;;;1.35;0.88;;;10.00;99.90;;;;;;4973852;28;20037;-77
2023/11/25 06:13:17;;;;;;;1.77;1.05;;;10.00;99.90;;;;;;4969001;28;20019;-77
2023/11/25 06:15:43;;;;;;;1.92;1.10;;;10.00;99.90;;;;;;4970379;28;20019;-77
2023/11/25 06:18:09;;;;;;;3.75;1.90;;;10.00;99.90;;;;;;4970531;28;20026;-77
2023/11/25 06:20:34;;;;;;;1.40;1.10;;;10.00;99.90;;;;;;4970356;28;20035;-77
2023/11/25 06:23:03;;;;;;;1.10;1.00;;;10.00;99.90;;;;;;4967932;28;20037;-77
2023/11/25 06:25:28;;;;;;;1.50;1.20;;;10.00;99.90;;;;;;4970996;28;20027;-77
2023/11/25 06:27:54;;;;;;;1.98;1.02;;;10.00;99.90;;;;;;4971003;28;20050;-77
2023/11/25 06:30:21;;;;;;;1.63;0.90;;;10.00;99.90;;;;;;4966846;28;20033;-77
2023/11/25 06:32:47;;;;;;;4.03;1.17;;;10.00;99.90;;;;;;4967692;28;20038;-77
2023/11/25 06:35:13;;;;;;;1.67;1.10;;;10.00;99.90;;;;;;4968606;28;20509;-76
2023/11/25 06:37:40;;;;;;;1.90;1.02;;;10.00;99.90;;;;;;4969538;28;20034;-77
2023/11/25 06:40:07;;;;;;;1.63;1.13;;;10.00;99.90;;;;;;4965562;28;20026;-78
2023/11/25 06:42:33;;;;;;;2.75;1.27;;;10.00;99.90;;;;;;4967830;28;20098;-77
2023/11/25 06:44:59;;;;;;;2.80;1.10;;;10.00;99.90;;;;;;4968250;28;20027;-77
2023/11/25 06:47:24;;;;;;;2.85;1.13;;;10.00;99.90;;;;;;4964916;28;20442;-76
2023/11/25 06:49:51;;;;;;;1.30;0.95;;;10.00;99.90;;;;;;4967121;28;20421;-77
2023/11/25 06:52:17;;;;;;;1.67;0.98;;;10.00;99.90;;;;;;4968395;28;20027;-76
2023/11/25 06:54:42;;;;;;;1.92;1.08;;;10.00;99.90;;;;;;4971591;28;20057;-76
2023/11/25 06:57:08;;;;;;;4.07;1.33;;;10.00;99.90;;;;;;4969604;28;20062;-76
2023/11/25 06:59:34;;;;;;;2.15;1.30;;;10.00;99.90;;;;;;4970578;28;20523;-77
2023/11/25 07:01:59;;;;;;;6.25;1.35;;;10.00;99.90;;;;;;4969303;28;20042;-78
2023/11/25 07:04:26;;;;;;;0.88;0.88;;;10.00;99.90;;;;;;4970847;28;20050;-76
2023/11/25 07:06:51;;;;;;;3.78;1.23;;;9.90;99.90;;;;;;4968195;28;20423;-77
2023/11/25 07:09:18;;;;;;;1.73;1.63;;;10.00;99.90;;;;;;4971341;28;20703;-81
2023/11/25 07:11:44;;;;;;;17.02;2.75;;;10.00;99.90;;;;;;4972072;28;20019;-69
2023/11/25 07:14:10;;;;;;;10.65;2.30;;;12.30;99.90;;;;;;4972648;28;20077;-70
2023/11/25 07:16:36;;;;;;;23.45;2.70;;;13.30;99.90;;;;;;4973403;28;20106;-71
2023/11/25 07:19:04;;;;;;;13.20;2.42;;;13.90;92.20;;;;;;4972693;28;20046;-70
2023/11/25 07:21:31;;;;;;;6.68;2.40;;;14.30;91.10;;;;;;4970531;28;20039;-77
2023/11/25 07:23:56;;;;;;;5.95;2.40;;;13.90;95.50;;;;;;4968296;28;20102;-76
2023/11/25 07:26:22;;;;;;;4.78;1.95;;;12.40;99.90;;;;;;4971654;28;20118;-77
2023/11/25 07:28:48;;;;;;;10.07;2.35;;;11.40;99.90;;;;;;4975528;28;20088;-77
2023/11/25 07:31:13;;;;;;;5.05;2.00;;;10.90;99.90;;;;;;4972767;28;20496;-76
2023/11/25 07:33:39;;;;;;;6.13;1.88;;;10.60;99.90;;;;;;4972291;28;20019;-76
2023/11/25 07:36:06;;;;;;;7.30;2.08;;;10.50;99.90;;;;;;4970467;28;20051;-76
2023/11/25 07:38:32;;;;;;;6.47;1.83;;;10.40;99.90;;;;;;4971236;28;20073;-77
2023/11/25 07:40:58;;;;;;;7.18;1.80;;;10.30;99.90;;;;;;4972898;28;20018;-76
2023/11/25 07:43:24;;;;;;;3.72;1.85;;;10.20;99.90;;;;;;4972837;28;20107;-77
2023/11/25 07:45:50;;;;;;;6.35;1.80;;;10.20;99.90;;;;;;4973267;28;20480;-77
2023/11/25 07:48:15;;;;;;;3.25;2.00;;;10.20;99.90;;;;;;4971130;28;20030;-77
2023/11/25 07:50:45;;;;;;;5.47;2.10;;;10.10;99.90;;;;;;4970966;28;20094;-77
2023/11/25 07:53:11;;;;;;;7.50;1.60;;;10.10;99.90;;;;;;4969219;28;20023;-78
2023/11/25 07:55:37;;;;;;;11.75;2.13;;;10.10;99.90;;;;;;4972286;28;20262;-77
2023/11/25 07:58:02;;;;;;;6.97;2.03;;;10.10;99.90;;;;;;4969315;28;20380;-77
2023/11/25 08:00:28;;;;;;;3.83;1.50;;;10.10;99.90;;;;;;4973329;28;20097;-77
2023/11/25 08:02:55;;;;;;;13.18;2.00;;;10.10;99.90;;;;;;4965817;28;20114;-77
2023/11/25 08:05:22;;;;;;;6.20;1.67;;;10.10;99.90;;;;;;4971092;28;20444;-76
2023/11/25 08:07:57;;;;;;;4.35;1.63;;;10.10;99.90;;;;;;4974849;28;20027;-79
2023/11/25 08:10:31;;;;;;;8.60;1.73;;;10.00;99.90;;;;;;4971322;28;20027;-78
2023/11/25 08:12:58;;;;;;;2.72;1.80;;;10.10;99.90;;;;;;4968816;28;20023;-76
2023/11/25 08:15:23;;;;;;;3.65;1.55;;;10.00;99.90;;;;;;4970478;28;20097;-77
2023/11/25 08:17:49;;;;;;;2.45;1.70;;;10.00;99.90;;;;;;4971072;28;20400;-78
2023/11/25 08:20:14;;;;;;;4.32;2.38;;;10.00;99.90;;;;;;4971745;28;20472;-78
2023/11/25 08:22:40;;;;;;;4.13;2.08;;;10.10;99.90;;;;;;4970214;28;20030;-78
2023/11/25 08:25:09;;;;;;;6.72;1.88;;;10.00;99.90;;;;;;4967830;28;20019;-77
2023/11/25 08:27:39;;;;;;;2.17;1.40;;;10.10;99.90;;;;;;4965832;28;20102;-77
2023/11/25 08:30:08;;;;;;;2.10;1.40;;;10.10;99.90;;;;;;4970424;28;20106;-77
2023/11/25 08:32:43;;;;;;;3.92;1.48;;;10.10;99.90;;;;;;4970936;28;20031;-77
2023/11/25 08:35:09;;;;;;;3.78;1.70;;;10.10;99.90;;;;;;4968986;28;20026;-77
2023/11/25 08:37:36;;;;;;;4.05;1.58;;;10.20;99.90;;;;;;4969618;28;20033;-77
2023/11/25 08:40:03;;;;;;;2.92;1.60;;;10.20;99.90;;;;;;4969382;28;20062;-77
2023/11/25 08:42:30;;;;;;;3.15;1.58;;;10.20;99.90;;;;;;4969646;28;20428;-77
2023/11/25 08:44:56;;;;;;;3.08;1.90;;;10.20;99.90;;;;;;4975328;28;20034;-77
2023/11/25 08:47:21;;;;;;;3.03;1.98;;;10.20;99.90;;;;;;4971185;28;20031;-77
2023/11/25 08:49:48;;;;;;;4.22;1.67;;;10.20;99.90;;;;;;4968006;28;20069;-77
2023/11/25 08:52:14;;;;;;;6.20;1.73;;;10.30;99.90;;;;;;4968241;28;20022;-78
2023/11/25 08:54:39;;;;;;;6.60;1.33;;;10.30;99.90;;;;;;4969181;28;20511;-76
2023/11/25 08:57:08;;;;;;;2.85;1.58;;;10.30;99.90;;;;;;4971385;28;20034;-77
2023/11/25 08:59:34;;;;;;;5.72;1.75;;;10.30;99.90;;;;;;4968851;28;20023;-78
2023/11/25 09:02:03;;;;;;;3.53;1.65;;;10.30;99.90;;;;;;4968841;28;20034;-77
2023/11/25 09:04:35;;;;;;;2.37;1.30;;;10.30;99.90;;;;;;4971996;28;20042;-77
2023/11/25 09:07:01;;;;;;;4.10;1.75;;;10.30;99.90;;;;;;4974005;28;20104;-77
2023/11/25 09:09:26;;;;;;;2.38;1.27;;;10.30;99.90;;;;;;4970717;28;20075;-77
2023/11/25 09:11:53;;;;;;;2.35;1.50;;;10.30;99.90;;;;;;4969179;28;20042;-78
2023/11/25 09:14:20;;;;;;;2.03;1.45;;;10.30;99.90;;;;;;4965983;28;20551;-77
2023/11/25 09:16:45;;;;;;;7.65;1.75;;;10.30;99.90;;;;;;4968180;28;20480;-78
2023/11/25 09:19:12;;;;;;;3.55;1.50;;;10.30;99.90;;;;;;4969778;28;20029;-77
2023/11/25 09:21:38;;;;;;;1.67;1.35;;;10.30;99.90;;;;;;4970807;28;20034;-77
2023/11/25 09:24:04;;;;;;;5.40;1.67;;;10.30;99.90;;;;;;4969897;28;20023;-77
2023/11/25 09:26:30;;;;;;;2.22;1.50;;;10.20;99.90;;;;;;4965756;28;20492;-77
2023/11/25 09:28:55;;;;;;;4.90;1.60;;;10.20;99.90;;;;;;4967308;28;20034;-76
2023/11/25 09:31:22;;;;;;;2.25;1.75;;;10.20;99.90;;;;;;4969363;28;20023;-77
2023/11/25 09:33:49;;;;;;;3.03;1.30;;;10.20;99.90;;;;;;4970704;28;20110;-77
2023/11/25 09:36:14;;;;;;;3.58;1.30;;;10.20;99.90;;;;;;4969990;28;20019;-77
2023/11/25 09:38:40;;;;;;;2.30;1.60;;;10.20;99.90;;;;;;4967155;28;20035;-77
2023/11/25 09:41:06;;;;;;;2.55;1.20;;;10.20;99.90;;;;;;4966704;28;20098;-78
2023/11/25 09:43:32;;;;;;;1.90;1.20;;;10.20;99.90;;;;;;4970939;28;20454;-78
2023/11/25 09:46:00;;;;;;;3.35;1.48;;;10.20;99.90;;;;;;4973586;28;20019;-76
2023/11/25 09:48:26;;;;;;;1.83;1.20;;;10.20;99.90;;;;;;4968231;28;20031;-77
2023/11/25 09:50:53;;;;;;;2.90;1.55;;;10.10;99.90;;;;;;4971552;28;20031;-78
2023/11/25 09:53:27;;;;;;;5.28;1.35;;;10.20;99.90;;;;;;4971625;28;20399;-78
2023/11/25 09:56:13;;;;;;;1.90;1.30;;;10.10;99.90;;;;;;4968210;28;20027;-77
2023/11/25 09:58:39;;;;;;;5.60;2.13;;;10.10;99.90;;;;;;4970153;28;20031;-77
2023/11/25 10:01:05;;;;;;;6.97;1.60;;;10.10;99.90;;;;;;4970681;28;20031;-77
2023/11/25 10:03:33;;;;;;;3.85;1.50;;;10.10;99.90;;;;;;4968477;28;20062;-77
2023/11/25 10:05:59;;;;;;;1.80;1.17;;;10.10;99.90;;;;;;4966050;28;20018;-77
2023/11/25 10:08:24;;;;;;;9.32;1.27;;;10.10;99.90;;;;;;4970062;28;20576;-78
2023/11/25 10:11:08;;;;;;;1.88;1.15;;;10.10;99.90;;;;;;4970023;28;20026;-77
2023/11/25 10:13:34;;;;;;;2.30;1.42;;;10.10;99.90;;;;;;4970200;28;20027;-77
2023/11/25 10:16:01;;;;;;;2.15;1.20;;;10.10;99.90;;;;;;4964987;28;20015;-77
2023/11/25 10:18:27;;;;;;;7.35;1.58;;;10.10;99.90;;;;;;4960702;28;20488;-77
2023/11/25 10:20:57;;;;;;;3.55;1.60;;;10.20;99.90;;;;;;4969936;28;20627;-77
2023/11/25 10:23:24;;;;;;;1.05;0.95;;;10.20;99.90;;;;;;4970905;28;20058;-77
2023/11/25 10:25:53;;;;;;;3.30;1.55;;;10.20;99.90;;;;;;4974093;28;20023;-78
2023/11/25 10:28:25;;;;;;;1.73;1.15;;;10.20;99.90;;;;;;4970981;28;20034;-77
2023/11/25 10:30:59;;;;;;;5.53;1.35;;;10.20;99.90;;;;;;4970447;28;20035;-77
2023/11/25 10:33:27;;;;;;;2.20;1.30;;;10.10;99.90;;;;;;4969084;28;20034;-77
2023/11/25 10:35:53;;;;;;;3.22;1.33;;;10.10;99.90;;;;;;4973890;28;20089;-77
2023/11/25 10:38:21;;;;;;;3.55;1.20;;;10.20;99.90;;;;;;4973454;28;20019;-78
2023/11/25 10:40:51;;;;;;;2.92;1.30;;;10.20;99.90;;;;;;4971830;28;20365;-77
2023/11/25 10:43:19;;;;;;;3.70;1.17;;;10.20;99.90;;;;;;4969386;28;20038;-77
2023/11/25 10:45:46;;;;;;;3.10;1.50;;;10.20;99.90;;;;;;4972317;28;20109;-77
2023/11/25 10:48:12;;;;;;;6.45;1.90;;;10.20;99.90;;;;;;4973548;28;20171;-78
2023/11/25 10:50:41;;;;;;;4.30;1.27;;;10.20;99.90;;;;;;4973603;28;20041;-77
2023/11/25 10:53:14;;;;;;;1.02;1.00;;;10.20;99.90;;;;;;4968964;28;20065;-77
2023/11/25 10:55:42;;;;;;;7.55;1.48;;;10.20;99.90;;;;;;4971323;28;20019;-78
2023/11/25 10:58:09;;;;;;;5.35;1.27;;;10.20;99.90;;;;;;4975117;28;20018;-77
2023/11/25 11:00:35;;;;;;;4.57;1.30;;;10.20;99.90;;;;;;4974785;28;20019;-77
2023/11/25 11:03:05;;;;;;;2.80;1.17;;;10.20;99.90;;;;;;4974277;28;20018;-78
2023/11/25 11:05:42;;;;;;;;;;;10.20;99.90;;;;;;4968377;28;20071;-77
2023/11/25 11:08:13;;;;;;;6.50;1.60;;;10.20;99.90;;;;;;4972712;28;19960;-77
2023/11/25 11:10:51;;;;;;;5.00;1.30;;;10.20;99.90;;;;;;4970677;28;20030;-77
2023/11/25 11:13:24;;;;;;;3.00;1.30;;;10.20;99.90;;;;;;4973714;28;20109;-77
2023/11/25 11:15:54;;;;;;;4.20;1.23;;;10.20;99.90;;;;;;4972817;28;20089;-77
2023/11/25 11:18:26;;;;;;;2.33;1.20;;;10.20;99.90;;;;;;4969697;28;20023;-77
2023/11/25 11:20:54;;;;;;;5.20;1.42;;;10.20;99.90;;;;;;4976494;28;20023;-78
2023/11/25 11:23:22;;;;;;;2.75;1.13;;;10.30;99.90;;;;;;4973518;28;20030;-77
2023/11/25 11:26:27;;;;;;;5.00;1.25;;;10.30;99.90;;;;;;4975829;28;20098;-78
2023/11/25 11:29:17;;;;;;;3.75;1.33;;;10.30;99.90;;;;;;4972381;28;20134;-78
2023/11/25 11:32:03;;;;;;;4.45;1.15;;;10.20;99.90;;;;;;4972915;28;20093;-77
2023/11/25 11:34:31;;;;;;;3.63;1.42;;;10.20;99.90;;;;;;4966179;28;20030;-77
2023/11/25 11:36:56;;;;;;;6.57;1.50;;;10.30;99.90;;;;;;4969894;28;20086;-77
2023/11/25 11:39:59;;;;;;;3.80;1.70;;;10.30;99.90;;;;;;4970013;28;20027;-77
2023/11/25 11:42:28;;;;;;;10.73;2.20;;;10.30;99.90;;;;;;4966166;28;20027;-78
2023/11/25 11:45:25;;;;;;;4.40;1.50;;;10.30;99.90;;;;;;4986609;28;20035;-76
2023/11/25 11:47:53;;;;;;;4.80;1.13;;;10.30;99.90;;;;;;4974843;28;20396;-77
2023/11/25 11:50:20;;;;;;;2.47;1.20;;;10.30;99.90;;;;;;4970837;28;20112;-78
2023/11/25 11:53:01;;;;;;;2.42;1.08;;;10.30;99.90;;;;;;4968986;28;20376;-77
2023/11/25 11:55:35;;;;;;;7.00;1.30;;;10.30;99.90;;;;;;4983031;28;20157;-77
2023/11/25 11:58:17;;;;;;;3.58;1.20;;;10.20;99.90;;;;;;4973947;28;20494;-77
2023/11/25 12:01:02;;;;;;;5.22;1.50;;;10.20;99.90;;;;;;4966910;28;20015;-77
2023/11/25 12:03:29;;;;;;;2.17;1.23;;;10.20;99.90;;;;;;4969568;28;20027;-77
2023/11/25 12:05:55;;;;;;;11.48;1.90;;;10.20;99.90;;;;;;4972248;28;20070;-76
2023/11/25 12:08:22;;;;;;;5.40;1.80;;;10.20;99.90;;;;;;4968288;28;20027;-76
2023/11/25 12:10:48;;;;;;;6.32;1.48;;;10.20;99.90;;;;;;4968757;28;20042;-77
2023/11/25 12:13:38;;;;;;;5.65;1.25;;;10.20;99.90;;;;;;4968231;28;20037;-77
2023/11/25 12:16:04;;;;;;;5.38;1.27;;;10.20;99.90;;;;;;4969684;28;20049;-76
2023/11/25 12:18:35;;;;;;;3.50;1.08;;;10.20;99.90;;;;;;4967788;28;20097;-76
2023/11/25 12:21:02;;;;;;;7.63;1.55;;;10.10;99.90;;;;;;4965554;28;20101;-77
2023/11/25 12:23:29;;;;;;;6.15;1.38;;;10.10;99.90;;;;;;4968423;28;20404;-77
2023/11/25 12:25:58;;;;;;;7.47;1.52;;;10.00;99.90;;;;;;4970067;28;20074;-76
2023/11/25 12:28:24;;;;;;;5.90;2.05;;;10.00;99.90;;;;;;4968184;28;20496;-77
2023/11/25 12:30:53;;;;;;;2.17;1.50;;;10.00;99.90;;;;;;4968362;28;20042;-78
2023/11/25 12:33:19;;;;;;;7.57;1.70;;;10.00;99.90;;;;;;4966434;28;20105;-78
2023/11/25 12:35:45;;;;;;;8.68;2.05;;;10.00;99.90;;;;;;4965448;28;20023;-77
2023/11/25 12:38:11;;;;;;;10.63;1.73;;;10.00;99.90;;;;;;4969134;28;20039;-77
2023/11/25 12:40:37;;;;;;;10.60;2.15;;;10.00;99.90;;;;;;4971108;28;20023;-77
2023/11/25 12:43:08;;;;;;;14.75;2.10;;;9.90;99.90;;;;;;4970262;28;20022;-77
2023/11/25 12:45:39;;;;;;;9.27;1.52;;;9.90;99.90;;;;;;4965983;28;20120;-77
2023/11/25 12:48:06;;;;;;;5.10;1.60;;;9.90;99.90;;;;;;4963784;28;20026;-77
2023/11/25 12:50:57;;;;;;;7.13;1.80;;;9.90;99.90;;;;;;4966600;28;20031;-77
2023/11/25 12:53:23;;;;;;;5.45;1.92;;;9.90;99.90;;;;;;4970098;28;20487;-77